createdAt,value
2022-09-08T00:01:35.033Z,5.13
2022-09-08T00:04:06.372Z,9.07
2022-09-08T00:06:35.179Z,5.63
2022-09-08T00:09:04.008Z,6.10
2022-09-08T00:11:35.737Z,8.63
2022-09-08T00:14:08.180Z,7.00
2022-09-08T00:16:40.478Z,7.70
2022-09-08T00:19:10.364Z,4.63
2022-09-08T00:21:38.827Z,7.13
2022-09-08T00:24:07.442Z,5.50
2022-09-08T00:26:36.119Z,5.80
2022-09-08T00:29:05.173Z,4.67
2022-09-08T00:31:33.710Z,3.47
2022-09-08T00:34:02.796Z,4.00
2022-09-08T00:36:32.636Z,7.87
2022-09-08T00:39:01.677Z,6.30
2022-09-08T00:41:30.973Z,6.75
2022-09-08T00:44:01.880Z,6.97
2022-09-08T00:46:34.229Z,6.57
2022-09-08T00:49:10.708Z,5.17
2022-09-08T00:51:44.530Z,4.87
2022-09-08T00:54:14.124Z,5.33
2022-09-08T00:56:44.111Z,5.37
2022-09-08T00:59:13.995Z,5.57
2022-09-08T01:01:42.662Z,4.40
2022-09-08T01:04:12.116Z,12.67
2022-09-08T01:07:08.066Z,5.53
2022-09-08T01:10:05.893Z,5.60
2022-09-08T01:12:48.376Z,4.23
2022-09-08T01:15:20.195Z,5.73
2022-09-08T01:17:50.603Z,9.43
2022-09-08T01:20:21.004Z,8.93
2022-09-08T01:23:13.621Z,8.20
2022-09-08T01:26:09.330Z,5.83
2022-09-08T01:28:43.576Z,5.33
2022-09-08T01:31:14.254Z,6.80
2022-09-08T01:33:43.457Z,8.00
2022-09-08T01:36:14.650Z,9.83
2022-09-08T01:38:44.130Z,5.10
2022-09-08T01:41:12.927Z,7.10
2022-09-08T01:43:42.917Z,5.47
2022-09-08T01:46:11.921Z,7.97
2022-09-08T01:48:40.460Z,6.73
2022-09-08T01:51:10.072Z,6.00
2022-09-08T01:53:39.253Z,7.77
2022-09-08T01:56:08.340Z,5.20
2022-09-08T01:58:37.031Z,6.33
2022-09-08T02:01:07.099Z,7.83
2022-09-08T02:03:35.725Z,7.00
2022-09-08T02:06:05.190Z,6.57
2022-09-08T02:08:33.657Z,5.77
2022-09-08T02:11:02.365Z,7.07
2022-09-08T02:13:31.358Z,5.60
2022-09-08T02:16:01.649Z,6.03
2022-09-08T02:18:32.973Z,8.63
2022-09-08T02:21:10.523Z,7.60
2022-09-08T02:23:40.971Z,7.23
2022-09-08T02:26:14.692Z,7.63
2022-09-08T02:28:43.288Z,6.20
2022-09-08T02:31:11.862Z,6.43
2022-09-08T02:33:42.104Z,6.97
2022-09-08T02:36:11.075Z,11.43
2022-09-08T02:38:39.893Z,4.93
2022-09-08T02:41:08.487Z,6.47
2022-09-08T02:43:37.500Z,12.07
2022-09-08T02:46:07.481Z,7.77
2022-09-08T02:48:36.546Z,6.57
2022-09-08T02:51:09.728Z,7.80
2022-09-08T02:53:38.930Z,5.50
2022-09-08T02:56:08.631Z,4.77
2022-09-08T02:58:37.727Z,6.57
2022-09-08T03:01:08.011Z,6.90
2022-09-08T03:03:37.070Z,5.33
2022-09-08T03:06:07.999Z,6.13
2022-09-08T03:08:37.581Z,8.07
2022-09-08T03:11:06.598Z,6.57
2022-09-08T03:13:36.707Z,5.37
2022-09-08T03:16:05.812Z,6.17
2022-09-08T03:18:34.808Z,7.30
2022-09-08T03:21:05.558Z,4.83
2022-09-08T03:23:35.712Z,6.83
2022-09-08T03:26:05.327Z,5.43
2022-09-08T03:28:34.255Z,5.63
2022-09-08T03:31:03.494Z,17.40
2022-09-08T03:33:32.318Z,12.63
2022-09-08T03:36:05.682Z,12.47
2022-09-08T03:38:35.758Z,11.73
2022-09-08T03:41:07.317Z,6.97
2022-09-08T03:43:35.910Z,6.30
2022-09-08T03:46:08.170Z,6.10
2022-09-08T03:48:36.871Z,5.10
2022-09-08T03:51:13.286Z,4.07
2022-09-08T03:53:43.985Z,5.73
2022-09-08T03:56:14.608Z,6.13
2022-09-08T03:58:44.173Z,10.60
2022-09-08T04:01:15.356Z,6.73
2022-09-08T04:03:45.854Z,5.87
2022-09-08T04:06:16.965Z,9.07
2022-09-08T04:08:47.588Z,7.13
2022-09-08T04:11:16.058Z,10.23
2022-09-08T04:13:44.527Z,7.80
2022-09-08T04:16:13.044Z,8.13
2022-09-08T04:18:41.868Z,16.97
2022-09-08T04:21:11.998Z,7.73
2022-09-08T04:23:41.002Z,6.17
2022-09-08T04:26:14.477Z,10.07
2022-09-08T04:28:43.539Z,6.77
2022-09-08T04:31:14.637Z,4.97
2022-09-08T04:33:43.254Z,7.87
2022-09-08T04:36:25.857Z,6.50
2022-09-08T04:38:55.626Z,6.07
2022-09-08T04:41:25.908Z,10.67
2022-09-08T04:43:55.628Z,5.17
2022-09-08T04:46:24.638Z,7.97
2022-09-08T04:48:53.237Z,7.53
2022-09-08T04:51:22.380Z,8.00
2022-09-08T04:53:53.054Z,7.10
2022-09-08T04:56:23.144Z,6.70
2022-09-08T04:58:55.563Z,7.23
2022-09-08T05:01:26.441Z,10.20
2022-09-08T05:03:57.241Z,7.70
2022-09-08T05:06:25.759Z,8.57
2022-09-08T05:08:57.168Z,12.83
2022-09-08T05:11:28.162Z,8.50
2022-09-08T05:13:58.357Z,10.67
2022-09-08T05:16:28.808Z,9.47
2022-09-08T05:18:59.208Z,8.80
2022-09-08T05:21:28.674Z,7.23
2022-09-08T05:24:01.177Z,7.20
2022-09-08T05:26:30.819Z,9.97
2022-09-08T05:29:00.704Z,7.43
2022-09-08T05:31:30.892Z,8.60
2022-09-08T05:34:00.321Z,8.53
2022-09-08T05:36:30.878Z,8.07
2022-09-08T05:38:59.400Z,7.43
2022-09-08T05:41:27.891Z,8.67
2022-09-08T05:43:57.018Z,8.17
2022-09-08T05:46:28.453Z,7.20
2022-09-08T05:49:00.252Z,8.20
2022-09-08T05:51:29.025Z,17.83
2022-09-08T05:54:00.598Z,11.87
2022-09-08T05:56:29.351Z,10.35
2022-09-08T05:58:59.776Z,7.10
2022-09-08T06:01:31.945Z,6.63
2022-09-08T06:04:02.727Z,9.60
2022-09-08T06:06:32.080Z,8.20
2022-09-08T06:09:01.876Z,9.13
2022-09-08T06:11:32.048Z,9.93
2022-09-08T06:14:00.844Z,8.70
2022-09-08T06:16:31.813Z,10.13
2022-09-08T06:19:01.214Z,7.28
2022-09-08T06:21:31.794Z,12.27
2022-09-08T06:24:01.742Z,8.05
2022-09-08T06:26:46.854Z,10.80
2022-09-08T06:29:20.835Z,9.40
2022-09-08T06:31:55.191Z,10.43
2022-09-08T06:34:27.341Z,12.13
2022-09-08T06:37:00.841Z,9.40
2022-09-08T06:39:34.625Z,10.73
2022-09-08T06:42:08.052Z,11.48
2022-09-08T06:44:39.677Z,8.38
2022-09-08T06:47:19.711Z,9.25
2022-09-08T06:49:50.202Z,10.43
2022-09-08T06:52:33.930Z,8.27
2022-09-08T06:55:13.144Z,9.23
2022-09-08T06:58:04.569Z,8.07
2022-09-08T07:00:43.546Z,8.27
2022-09-08T07:03:26.408Z,7.68
2022-09-08T07:06:02.858Z,9.60
2022-09-08T07:09:02.214Z,14.68
2022-09-08T07:11:42.267Z,11.50
2022-09-08T07:14:34.223Z,10.10
2022-09-08T07:17:07.730Z,9.25
2022-09-08T07:19:50.521Z,9.30
2022-09-08T07:22:39.397Z,8.82
2022-09-08T07:25:23.286Z,15.13
2022-09-08T07:27:59.112Z,7.57
2022-09-08T07:30:27.896Z,10.02
2022-09-08T07:33:15.000Z,7.90
2022-09-08T07:35:57.825Z,10.95
2022-09-08T07:38:36.539Z,8.85
2022-09-08T07:41:08.575Z,8.07
2022-09-08T07:43:37.095Z,8.48
2022-09-08T07:46:35.884Z,12.02
2022-09-08T07:49:12.558Z,19.45
2022-09-08T07:51:59.129Z,12.05
2022-09-08T07:54:49.971Z,9.95
2022-09-08T07:57:41.471Z,12.60
2022-09-08T08:00:16.365Z,9.60
2022-09-08T08:03:11.560Z,8.00
2022-09-08T08:05:46.109Z,10.82
2022-09-08T08:08:21.928Z,13.00
2022-09-08T08:11:00.178Z,10.32
2022-09-08T08:13:39.022Z,11.13
2022-09-08T08:16:11.622Z,10.90
2022-09-08T08:18:50.763Z,13.15
2022-09-08T08:21:24.144Z,14.63
2022-09-08T08:24:14.643Z,17.23
2022-09-08T08:26:50.444Z,13.82
2022-09-08T08:29:37.486Z,23.88
2022-09-08T08:32:33.530Z,16.90
2022-09-08T08:35:05.232Z,13.38
2022-09-08T08:37:37.141Z,16.67
2022-09-08T08:40:24.106Z,21.45
2022-09-08T08:43:16.525Z,7.40
2022-09-08T08:45:56.789Z,11.70
2022-09-08T08:48:37.293Z,11.23
2022-09-08T08:51:25.831Z,8.93
2022-09-08T08:54:04.379Z,11.05
2022-09-08T08:56:40.337Z,11.13
2022-09-08T08:59:39.035Z,9.27
2022-09-08T09:02:21.277Z,13.38
2022-09-08T09:05:19.019Z,13.88
2022-09-08T09:08:24.572Z,13.80
2022-09-08T09:11:05.227Z,11.57
2022-09-08T09:14:03.344Z,18.23
2022-09-08T09:16:58.310Z,11.50
2022-09-08T09:19:53.936Z,20.17
2022-09-08T09:22:30.665Z,17.77
2022-09-08T09:25:16.499Z,22.08
2022-09-08T09:27:47.494Z,11.35
2022-09-08T09:30:24.275Z,19.13
2022-09-08T09:33:23.183Z,16.23
2022-09-08T09:36:02.172Z,14.20
2022-09-08T09:38:49.892Z,9.43
2022-09-08T09:41:59.574Z,16.88
2022-09-08T09:45:06.516Z,12.88
2022-09-08T09:47:57.763Z,13.43
2022-09-08T09:50:49.414Z,16.90
2022-09-08T09:53:34.104Z,12.00
2022-09-08T09:56:37.197Z,15.13
2022-09-08T09:59:45.518Z,18.33
2022-09-08T10:02:52.509Z,13.57
2022-09-08T10:05:53.123Z,17.20
2022-09-08T10:09:05.429Z,16.00
2022-09-08T10:12:06.662Z,10.38
2022-09-08T10:15:24.191Z,22.83
2022-09-08T10:18:22.523Z,18.17
2022-09-08T10:21:24.081Z,22.17
2022-09-08T10:24:21.750Z,22.58
2022-09-08T10:27:25.286Z,18.08
2022-09-08T10:30:21.659Z,19.27
2022-09-08T10:33:41.047Z,15.98
2022-09-08T10:36:11.486Z,14.15
2022-09-08T10:38:56.871Z,15.13
2022-09-08T10:42:02.445Z,18.10
2022-09-08T10:44:51.570Z,15.65
2022-09-08T10:47:51.115Z,18.77
2022-09-08T10:50:22.602Z,15.50
2022-09-08T10:53:07.643Z,24.42
2022-09-08T10:56:02.658Z,13.05
2022-09-08T10:58:52.339Z,9.23
2022-09-08T11:01:35.829Z,8.25
2022-09-08T11:04:33.065Z,9.00
2022-09-08T11:07:22.459Z,12.43
2022-09-08T11:10:25.466Z,18.48
2022-09-08T11:13:04.791Z,19.73
2022-09-08T11:15:55.413Z,9.20
2022-09-08T11:18:38.801Z,25.23
2022-09-08T11:21:14.698Z,19.02
2022-09-08T11:23:58.765Z,17.42
2022-09-08T11:26:55.682Z,14.68
2022-09-08T11:29:32.857Z,11.55
2022-09-08T11:32:11.658Z,13.15
2022-09-08T11:35:03.181Z,14.13
2022-09-08T11:37:58.129Z,13.02
2022-09-08T11:40:40.794Z,13.18
2022-09-08T11:43:36.409Z,12.43
2022-09-08T11:46:34.270Z,18.50
2022-09-08T11:52:46.318Z,23.17
2022-09-08T11:55:43.994Z,23.25
2022-09-08T11:58:35.444Z,12.85
2022-09-08T12:01:36.322Z,12.75
2022-09-08T12:04:30.760Z,11.20
2022-09-08T12:07:23.631Z,15.27
2022-09-08T12:10:19.565Z,13.70
2022-09-08T12:12:56.782Z,12.63
2022-09-08T12:15:46.903Z,20.30
2022-09-08T12:18:33.694Z,20.77
2022-09-08T12:21:31.606Z,14.68
2022-09-08T12:24:13.027Z,9.07
2022-09-08T12:26:50.511Z,24.88
2022-09-08T12:29:47.612Z,12.88
2022-09-08T12:32:42.895Z,12.95
2022-09-08T12:35:26.105Z,19.15
2022-09-08T12:38:17.988Z,13.75
2022-09-08T12:41:12.025Z,15.38
2022-09-08T12:44:11.525Z,19.98
2022-09-08T12:46:46.862Z,21.58
2022-09-08T12:49:42.299Z,15.18
2022-09-08T12:52:25.108Z,13.48
2022-09-08T12:55:04.219Z,21.63
2022-09-08T12:57:48.840Z,12.20
2022-09-08T13:00:20.688Z,13.60
2022-09-08T13:03:06.994Z,17.65
2022-09-08T13:06:09.076Z,20.73
2022-09-08T13:08:54.926Z,13.23
2022-09-08T13:11:42.574Z,9.05
2022-09-08T13:14:13.246Z,18.92
2022-09-08T13:16:50.607Z,17.77
2022-09-08T13:19:28.758Z,12.32
2022-09-08T13:22:22.478Z,24.23
2022-09-08T13:25:00.988Z,18.02
2022-09-08T13:27:38.898Z,9.18
2022-09-08T13:30:20.678Z,12.52
2022-09-08T13:33:08.469Z,12.90
2022-09-08T13:35:54.568Z,11.07
2022-09-08T13:38:44.816Z,8.48
2022-09-08T13:41:27.042Z,10.27
2022-09-08T13:44:18.945Z,9.82
2022-09-08T13:47:00.973Z,16.38
2022-09-08T13:49:51.977Z,13.25
2022-09-08T13:52:49.342Z,9.98
2022-09-08T14:07:20.987Z,13.82
2022-09-08T14:10:21.906Z,14.77
2022-09-08T14:12:55.654Z,11.65
2022-09-08T14:15:41.599Z,14.23
2022-09-08T14:18:33.716Z,24.08
2022-09-08T14:21:14.536Z,9.18
2022-09-08T14:24:23.320Z,13.55
2022-09-08T14:40:53.248Z,9.10
2022-09-08T14:43:41.700Z,11.65
2022-09-08T14:46:16.222Z,12.25
2022-09-08T14:49:07.958Z,13.60
2022-09-08T14:51:47.580Z,29.10
2022-09-08T14:54:37.490Z,9.35
2022-09-08T14:57:17.072Z,8.60
2022-09-08T15:00:06.411Z,13.77
2022-09-08T15:02:37.296Z,10.43
2022-09-08T15:05:18.549Z,12.55
2022-09-08T15:07:51.883Z,12.90
2022-09-08T15:23:20.061Z,21.23
2022-09-08T15:26:00.924Z,17.27
2022-09-08T15:28:32.214Z,14.25
2022-09-08T15:34:16.737Z,13.23
2022-09-08T15:37:07.178Z,13.52
2022-09-08T15:39:47.165Z,18.10
2022-09-08T15:42:31.777Z,13.65
2022-09-08T15:45:06.570Z,17.67
2022-09-08T15:47:44.037Z,11.43
2022-09-08T15:50:22.963Z,4.30
2022-09-08T15:53:31.311Z,23.58
2022-09-08T15:56:18.919Z,17.02
2022-09-08T15:59:17.596Z,10.32
2022-09-08T16:01:55.127Z,9.68
2022-09-08T16:04:31.474Z,17.42
2022-09-08T16:07:14.260Z,24.27
2022-09-08T16:10:04.840Z,15.43
2022-09-08T16:12:44.738Z,12.60
2022-09-08T16:15:26.372Z,10.80
2022-09-08T16:18:18.546Z,14.23
2022-09-08T16:20:57.072Z,7.15
2022-09-08T16:23:32.276Z,8.15
2022-09-08T16:26:12.552Z,9.55
2022-09-08T16:28:55.612Z,8.77
2022-09-08T16:31:29.659Z,6.00
2022-09-08T16:34:19.722Z,8.90
2022-09-08T16:36:50.951Z,13.00
2022-09-08T16:39:23.982Z,5.82
2022-09-08T16:41:58.970Z,6.78
2022-09-08T16:44:31.984Z,6.85
2022-09-08T16:47:32.665Z,4.97
2022-09-08T16:50:05.221Z,9.52
2022-09-08T16:52:42.201Z,12.07
2022-09-08T16:55:31.198Z,12.50
2022-09-08T16:58:12.268Z,15.23
2022-09-08T17:00:53.990Z,13.70
2022-09-08T17:03:32.425Z,13.63
2022-09-08T17:06:12.160Z,18.65
2022-09-08T17:08:46.067Z,8.85
2022-09-08T17:11:27.271Z,12.43
2022-09-08T17:13:56.198Z,8.05
2022-09-08T17:16:55.195Z,11.50
2022-09-08T17:19:26.722Z,8.88
2022-09-08T17:22:30.021Z,18.17
2022-09-08T17:25:20.786Z,12.02
2022-09-08T17:28:22.863Z,13.43
2022-09-08T17:31:06.996Z,18.98
2022-09-08T17:34:01.036Z,12.70
2022-09-08T17:36:39.504Z,12.57
2022-09-08T17:39:29.326Z,13.02
2022-09-08T17:42:05.073Z,28.63
2022-09-08T17:44:43.511Z,24.25
2022-09-08T17:47:20.512Z,15.75
2022-09-08T17:49:57.835Z,14.13
2022-09-08T17:52:36.359Z,9.68
2022-09-08T17:55:19.105Z,9.13
2022-09-08T17:57:49.517Z,11.82
2022-09-08T18:00:20.941Z,15.80
2022-09-08T18:03:27.192Z,11.48
2022-09-08T18:06:06.301Z,15.15
2022-09-08T18:08:37.472Z,13.05
2022-09-08T18:11:15.683Z,16.65
2022-09-08T18:13:51.112Z,12.27
2022-09-08T18:16:22.290Z,12.23
2022-09-08T18:18:59.451Z,11.65
2022-09-08T18:21:56.250Z,12.88
2022-09-08T18:24:26.731Z,13.50
2022-09-08T18:26:58.973Z,10.75
2022-09-08T18:29:33.194Z,11.32
2022-09-08T18:32:19.572Z,15.27
2022-09-08T18:35:04.323Z,15.20
2022-09-08T18:37:34.678Z,10.13
2022-09-08T18:40:13.126Z,11.68
2022-09-08T18:43:01.984Z,15.38
2022-09-08T18:46:15.099Z,9.40
2022-09-08T18:48:52.290Z,12.70
2022-09-08T18:51:58.949Z,12.25
2022-09-08T18:55:24.991Z,11.60
2022-09-08T18:58:23.694Z,14.32
2022-09-08T19:01:08.826Z,13.10
2022-09-08T19:03:49.377Z,12.52
2022-09-08T19:06:38.142Z,12.32
2022-09-08T19:09:28.679Z,12.17
2022-09-08T19:12:07.883Z,13.73
2022-09-08T19:14:45.094Z,10.50
2022-09-08T19:17:37.341Z,13.55
2022-09-08T19:20:18.101Z,11.70
2022-09-08T19:23:04.321Z,13.75
2022-09-08T19:25:34.653Z,19.27
2022-09-08T19:28:29.230Z,13.27
2022-09-08T19:31:03.632Z,16.38
2022-09-08T19:33:41.965Z,17.27
2022-09-08T19:36:30.647Z,15.45
2022-09-08T19:39:05.665Z,14.50
2022-09-08T19:41:43.195Z,19.17
2022-09-08T19:44:24.867Z,17.35
2022-09-08T19:47:04.383Z,13.88
2022-09-08T19:49:53.545Z,16.58
2022-09-08T19:52:31.634Z,14.35
2022-09-08T19:55:26.043Z,20.40
2022-09-08T19:57:58.578Z,16.17
2022-09-08T20:00:32.514Z,15.80
2022-09-08T20:03:15.883Z,16.85
2022-09-08T20:05:47.584Z,16.50
2022-09-08T20:08:40.008Z,17.88
2022-09-08T20:11:17.071Z,14.70
2022-09-08T20:13:53.381Z,15.85
2022-09-08T20:16:41.309Z,19.10
2022-09-08T20:19:19.236Z,15.98
2022-09-08T20:21:53.886Z,14.13
2022-09-08T20:24:59.605Z,14.30
2022-09-08T20:27:41.288Z,14.60
2022-09-08T20:30:15.338Z,17.48
2022-09-08T20:33:15.591Z,16.95
2022-09-08T20:35:58.570Z,15.20
2022-09-08T20:38:53.475Z,15.80
2022-09-08T20:41:34.094Z,16.67
2022-09-08T20:44:12.816Z,15.15
2022-09-08T20:46:54.306Z,16.48
2022-09-08T20:49:26.263Z,15.98
2022-09-08T20:52:22.311Z,16.45
2022-09-08T20:55:00.556Z,24.55
2022-09-08T20:57:38.605Z,17.25
2022-09-08T21:00:17.619Z,17.30
2022-09-08T21:02:47.999Z,17.83
2022-09-08T21:05:23.768Z,19.40
2022-09-08T21:07:57.395Z,19.20
2022-09-08T21:10:33.017Z,20.33
2022-09-08T21:13:17.619Z,20.80
2022-09-08T21:15:57.919Z,20.05
2022-09-08T21:18:36.760Z,21.70
2022-09-08T21:21:19.643Z,21.92
2022-09-08T21:23:53.147Z,21.00
2022-09-08T21:26:30.393Z,21.35
2022-09-08T21:29:07.755Z,20.50
2022-09-08T21:31:47.597Z,19.73
2022-09-08T21:34:26.620Z,19.08
2022-09-08T21:37:07.036Z,19.63
2022-09-08T21:40:05.120Z,19.38
2022-09-08T21:42:36.481Z,18.38
2022-09-08T21:45:08.281Z,16.75
2022-09-08T21:47:43.047Z,16.08
2022-09-08T21:50:20.648Z,16.27
2022-09-08T21:52:55.460Z,16.88
2022-09-08T21:55:31.667Z,16.63
2022-09-08T21:58:15.181Z,16.30
2022-09-08T22:00:53.693Z,14.40
2022-09-08T22:03:29.928Z,15.13
2022-09-08T22:06:02.627Z,14.25
2022-09-08T22:08:33.286Z,13.45
2022-09-08T22:11:15.054Z,12.15
2022-09-08T22:13:57.152Z,11.57
2022-09-08T22:16:29.348Z,12.10
2022-09-08T22:19:07.833Z,11.63
2022-09-08T22:21:46.827Z,10.60
2022-09-08T22:24:27.910Z,36.42
2022-09-08T22:27:01.082Z,11.25
2022-09-08T22:29:31.918Z,10.13
2022-09-08T22:32:09.370Z,11.02
2022-09-08T22:34:46.443Z,13.05
2022-09-08T22:37:24.128Z,10.55
2022-09-08T22:40:16.495Z,11.75
2022-09-08T22:42:54.009Z,10.85
2022-09-08T22:45:27.677Z,10.95
2022-09-08T22:48:04.927Z,11.45
2022-09-08T22:50:39.646Z,12.30
2022-09-08T22:53:23.164Z,12.75
2022-09-08T22:55:57.357Z,14.95
2022-09-08T22:58:29.485Z,19.90
2022-09-08T23:01:09.613Z,17.90
2022-09-08T23:04:05.742Z,19.73
2022-09-08T23:06:36.358Z,20.95
2022-09-08T23:09:20.321Z,19.88
2022-09-08T23:12:00.939Z,18.85
2022-09-08T23:14:39.843Z,19.02
2022-09-08T23:17:15.994Z,17.45
2022-09-08T23:20:00.167Z,16.52
2022-09-08T23:22:40.479Z,18.02
2022-09-08T23:25:15.233Z,18.70
2022-09-08T23:27:56.680Z,20.00
2022-09-08T23:30:28.234Z,18.65
2022-09-08T23:33:14.596Z,18.75
2022-09-08T23:35:44.976Z,16.73
2022-09-08T23:38:21.144Z,16.55
2022-09-08T23:40:54.031Z,16.50
2022-09-08T23:43:29.713Z,16.88
2022-09-08T23:46:05.229Z,17.63
2022-09-08T23:48:35.316Z,17.85
2022-09-08T23:51:11.812Z,15.75
2022-09-08T23:53:42.426Z,15.70
2022-09-08T23:56:18.715Z,15.18
2022-09-08T23:58:50.029Z,15.18
